Time;durP1;ratioP1;P1;durP2;ratioP2;P2;SDS_P1;SDS_P2;PMS_P1;PMS_P2;Temp;Humidity;BMP_temperature;BMP_pressure;BME280_temperature;BME280_humidity;BME280_pressure;Samples;Min_cycle;Max_cycle;Signal;HPM_P1;HPM_P2
2021/11/17 06:48:00;;;;;;;17.85;8.45;;;8.10;90.40;;;;;;5059007;28;20425;-65
2021/11/17 06:50:26;;;;;;;14.38;8.80;;;8.00;90.90;;;;;;5043487;28;20028;-65
2021/11/17 06:52:52;;;;;;;16.05;9.23;;;8.00;91.10;;;;;;5044163;28;20033;-65
2021/11/17 06:55:18;;;;;;;16.00;9.10;;;8.00;91.20;;;;;;5042985;28;20036;-66
2021/11/17 06:57:45;;;;;;;15.52;8.55;;;8.10;91.30;;;;;;5040629;28;20100;-65
2021/11/17 07:00:17;;;;;;;15.00;8.95;;;8.10;91.30;;;;;;5041267;28;20029;-65
2021/11/17 07:02:42;;;;;;;16.58;8.98;;;8.20;91.30;;;;;;5031348;28;20029;-65
2021/11/17 07:05:09;;;;;;;16.02;9.57;;;8.30;91.20;;;;;;5044021;28;20362;-64
2021/11/17 07:07:37;;;;;;;17.77;8.70;;;8.40;91.10;;;;;;5032472;28;20036;-65
2021/11/17 07:10:05;;;;;;;22.30;9.43;;;8.50;91.00;;;;;;5030875;28;20388;-65
2021/11/17 07:12:30;;;;;;;31.45;9.38;;;8.50;90.90;;;;;;5030543;28;20480;-65
2021/11/17 07:14:56;;;;;;;20.38;9.45;;;8.60;90.70;;;;;;5030847;28;20036;-64
2021/11/17 07:17:22;;;;;;;16.15;9.32;;;8.70;90.60;;;;;;5026228;28;20501;-64
2021/11/17 07:19:48;;;;;;;15.52;9.57;;;8.70;90.50;;;;;;5031960;28;20464;-64
2021/11/17 07:22:14;;;;;;;16.40;9.30;;;8.80;90.40;;;;;;5030737;28;20437;-64
2021/11/17 07:24:40;;;;;;;17.73;9.60;;;8.90;90.30;;;;;;5032383;28;20026;-64
2021/11/17 07:27:07;;;;;;;15.63;9.00;;;8.90;90.30;;;;;;5028732;28;20497;-64
2021/11/17 07:29:33;;;;;;;17.20;9.07;;;9.00;90.20;;;;;;5027759;28;20041;-64
2021/11/17 07:32:00;;;;;;;17.00;9.70;;;9.10;90.10;;;;;;5044924;28;20029;-64
2021/11/17 07:34:26;;;;;;;18.60;9.68;;;9.10;90.00;;;;;;5044925;28;20071;-64
2021/11/17 07:36:52;;;;;;;24.25;9.55;;;9.20;89.90;;;;;;5034373;28;20041;-64
2021/11/17 07:39:18;;;;;;;15.98;9.40;;;9.20;89.70;;;;;;5030441;28;20544;-64
2021/11/17 07:41:50;;;;;;;17.25;9.77;;;9.30;89.60;;;;;;5028581;28;20022;-64
2021/11/17 07:44:17;;;;;;;21.85;10.52;;;9.30;89.30;;;;;;5026821;28;20021;-64
2021/11/17 07:46:44;;;;;;;21.05;10.70;;;9.40;89.30;;;;;;5030857;28;20520;-64
2021/11/17 07:49:13;;;;;;;22.45;11.50;;;9.40;89.20;;;;;;5030066;28;20033;-64
2021/11/17 07:51:39;;;;;;;21.77;11.25;;;9.50;89.20;;;;;;5030016;28;20030;-64
2021/11/17 07:54:05;;;;;;;19.40;10.70;;;9.50;89.10;;;;;;5030388;28;20484;-64
2021/11/17 07:56:34;;;;;;;19.10;10.13;;;9.60;89.00;;;;;;5026352;28;20029;-65
2021/11/17 07:59:00;;;;;;;21.00;11.00;;;9.60;88.80;;;;;;5032630;28;20033;-64
2021/11/17 08:01:27;;;;;;;19.90;10.93;;;9.70;88.70;;;;;;5026386;28;20088;-64
2021/11/17 08:03:53;;;;;;;18.10;10.43;;;9.80;88.60;;;;;;5021577;28;20121;-64
2021/11/17 08:06:23;;;;;;;20.00;10.98;;;9.80;88.40;;;;;;5017763;28;20076;-64
2021/11/17 08:08:49;;;;;;;17.52;10.02;;;9.90;88.40;;;;;;5029292;28;20030;-64
2021/11/17 08:11:15;;;;;;;18.65;10.60;;;9.90;88.20;;;;;;5014479;28;20026;-64
2021/11/17 08:13:41;;;;;;;25.45;12.13;;;10.00;88.30;;;;;;5031655;28;20026;-64
2021/11/17 08:16:08;;;;;;;21.83;12.70;;;10.00;88.30;;;;;;5028673;28;20083;-65
2021/11/17 08:18:35;;;;;;;24.27;12.80;;;10.10;88.30;;;;;;5026148;28;20029;-64
2021/11/17 08:21:02;;;;;;;22.35;12.98;;;10.20;88.30;;;;;;5028155;28;20506;-64
2021/11/17 08:23:28;;;;;;;24.23;12.98;;;10.20;88.30;;;;;;5014148;28;20392;-64
2021/11/17 08:25:55;;;;;;;26.15;13.88;;;10.30;88.30;;;;;;5032246;28;20033;-65
2021/11/17 08:28:22;;;;;;;25.23;13.43;;;10.40;88.30;;;;;;5018260;28;20805;-65
2021/11/17 08:30:48;;;;;;;24.75;14.07;;;10.50;88.30;;;;;;5022548;28;20022;-64
2021/11/17 08:33:15;;;;;;;25.70;13.00;;;10.50;88.20;;;;;;5026154;28;20034;-65
2021/11/17 08:35:42;;;;;;;22.88;13.15;;;10.70;88.00;;;;;;5016035;28;20137;-64
2021/11/17 08:38:10;;;;;;;24.83;13.43;;;10.80;87.90;;;;;;5014983;28;20029;-65
2021/11/17 08:40:39;;;;;;;20.33;13.10;;;10.90;87.80;;;;;;5028852;28;20476;-65
2021/11/17 08:43:06;;;;;;;21.25;12.25;;;11.00;87.80;;;;;;5023730;28;20563;-65
2021/11/17 08:45:32;;;;;;;22.20;12.10;;;11.10;87.80;;;;;;5023047;28;20390;-65
2021/11/17 08:47:58;;;;;;;20.08;10.80;;;11.20;87.80;;;;;;5017290;28;20045;-65
2021/11/17 08:50:27;;;;;;;21.60;11.25;;;11.30;87.60;;;;;;5013324;28;20021;-65
2021/11/17 08:52:54;;;;;;;18.65;11.15;;;11.40;87.60;;;;;;5027893;28;20516;-65
2021/11/17 08:55:22;;;;;;;19.30;11.57;;;11.60;87.40;;;;;;5017543;28;20044;-65
2021/11/17 08:57:48;;;;;;;20.80;11.63;;;11.60;87.40;;;;;;5016431;28;20033;-65
2021/11/17 09:00:17;;;;;;;21.10;11.07;;;11.60;87.40;;;;;;5016821;28;20022;-65
2021/11/17 09:02:44;;;;;;;20.70;10.18;;;11.60;87.40;;;;;;5015402;28;20076;-65
2021/11/17 09:05:16;;;;;;;21.35;10.68;;;11.60;87.40;;;;;;5014021;28;20489;-65
2021/11/17 09:07:43;;;;;;;20.25;10.50;;;11.70;87.50;;;;;;5016752;28;20046;-65
2021/11/17 09:10:12;;;;;;;17.67;10.43;;;11.80;87.50;;;;;;5015779;28;20026;-65
2021/11/17 09:12:38;;;;;;;16.38;10.70;;;12.10;86.90;;;;;;5021868;28;20097;-65
2021/11/17 09:15:04;;;;;;;15.90;10.25;;;12.10;86.40;;;;;;5027139;28;20097;-65
2021/11/17 09:17:30;;;;;;;18.98;10.23;;;12.20;86.40;;;;;;5013294;28;20779;-65
2021/11/17 09:19:57;;;;;;;19.30;9.85;;;12.20;86.40;;;;;;5015553;28;20101;-65
2021/11/17 09:22:23;;;;;;;16.73;9.70;;;12.30;86.40;;;;;;5017174;28;20022;-65
2021/11/17 09:24:50;;;;;;;14.00;9.02;;;12.50;86.00;;;;;;5019323;28;20112;-65
2021/11/17 09:27:18;;;;;;;15.35;7.55;;;12.70;85.30;;;;;;5016358;28;20065;-65
2021/11/17 09:29:44;;;;;;;14.13;8.15;;;13.10;84.40;;;;;;5014972;28;20502;-65
2021/11/17 09:32:11;;;;;;;12.90;6.95;;;13.20;84.00;;;;;;5014044;28;20056;-65
2021/11/17 09:34:38;;;;;;;12.07;7.18;;;13.30;84.00;;;;;;5016421;28;20033;-65
2021/11/17 09:37:04;;;;;;;12.95;6.43;;;13.40;83.70;;;;;;5019340;28;20037;-65
2021/11/17 09:39:30;;;;;;;13.98;6.28;;;13.40;83.80;;;;;;5016060;28;20029;-65
2021/11/17 09:41:57;;;;;;;12.70;6.45;;;13.40;83.80;;;;;;5015841;28;20025;-65
2021/11/17 09:44:30;;;;;;;10.52;6.38;;;13.40;83.70;;;;;;5012006;28;20034;-65
2021/11/17 09:46:58;;;;;;;13.55;6.63;;;13.40;83.60;;;;;;5026971;28;20072;-65
2021/11/17 09:49:49;;;;;;;10.98;6.40;;;13.50;83.60;;;;;;5016826;28;20120;-65
2021/11/17 09:52:20;;;;;;;14.48;7.10;;;13.50;83.30;;;;;;5015976;28;20022;-65
2021/11/17 09:55:17;;;;;;;14.05;8.48;;;13.50;83.30;;;;;;5020422;28;20120;-65
2021/11/17 09:57:48;;;;;;;14.55;8.57;;;13.60;83.00;;;;;;5020643;28;20026;-65
2021/11/17 10:00:29;;;;;;;18.45;9.43;;;13.60;82.80;;;;;;5018518;28;20026;-65
2021/11/17 10:03:10;;;;;;;17.08;9.10;;;14.00;82.10;;;;;;5016019;28;20073;-65
2021/11/17 10:14:24;;;;;;;10.60;6.28;;;15.60;76.30;;;;;;5027154;28;20072;-63
2021/11/17 10:16:50;;;;;;;11.10;5.93;;;15.50;76.60;;;;;;5028933;28;20280;-62
2021/11/17 10:19:22;;;;;;;11.25;6.10;;;15.50;77.00;;;;;;5024677;28;20119;-62
2021/11/17 10:22:04;;;;;;;10.52;6.40;;;15.40;77.10;;;;;;5024302;28;20029;-62
2021/11/17 10:24:44;;;;;;;10.88;6.75;;;15.40;77.30;;;;;;5024489;28;20041;-62
2021/11/17 10:27:14;;;;;;;11.13;7.07;;;15.30;77.70;;;;;;5024432;28;20496;-62
2021/11/17 10:29:52;;;;;;;12.70;7.07;;;15.10;78.50;;;;;;5025065;28;20465;-62
2021/11/17 10:32:32;;;;;;;11.15;6.65;;;14.80;79.20;;;;;;5025526;28;20025;-62
2021/11/17 10:35:24;;;;;;;9.93;6.13;;;14.60;80.00;;;;;;5027611;28;20130;-62
2021/11/17 10:38:18;;;;;;;12.52;6.65;;;14.70;80.20;;;;;;5028228;28;20022;-62
2021/11/17 10:40:53;;;;;;;12.80;6.75;;;14.70;80.10;;;;;;5027432;28;20034;-62
2021/11/17 10:43:27;;;;;;;12.57;7.50;;;14.70;79.90;;;;;;5024723;28;20029;-62
2021/11/17 10:46:05;;;;;;;12.75;7.75;;;14.80;79.80;;;;;;5024083;28;20148;-62
2021/11/17 10:48:51;;;;;;;12.90;7.50;;;15.80;78.00;;;;;;5020853;28;20034;-62
2021/11/17 10:51:32;;;;;;;13.82;7.80;;;15.90;77.10;;;;;;5014912;28;20588;-63
2021/11/17 10:54:00;;;;;;;10.60;7.15;;;16.30;76.50;;;;;;5015074;28;20030;-62
2021/11/17 10:56:28;;;;;;;13.55;8.73;;;16.10;76.10;;;;;;5026164;28;20105;-62
2021/11/17 10:58:56;;;;;;;14.20;8.80;;;15.90;76.50;;;;;;5014580;28;20091;-62
2021/11/17 11:01:26;;;;;;;12.30;8.68;;;15.70;77.20;;;;;;5015921;28;20105;-62
2021/11/17 11:04:05;;;;;;;11.40;7.43;;;15.50;77.70;;;;;;5022113;28;20041;-62
2021/11/17 11:06:42;;;;;;;16.85;8.07;;;15.40;77.90;;;;;;5021478;28;20034;-62
2021/11/17 11:09:18;;;;;;;14.45;8.60;;;15.40;77.90;;;;;;5014789;28;20029;-62
2021/11/17 11:11:49;;;;;;;10.20;7.07;;;15.20;78.00;;;;;;5014402;28;20480;-62
2021/11/17 11:14:26;;;;;;;13.40;7.55;;;15.00;78.50;;;;;;5009774;28;20034;-62
2021/11/17 11:17:07;;;;;;;10.73;7.25;;;14.80;78.60;;;;;;5026209;28;20045;-62
2021/11/17 11:19:36;;;;;;;;;;;14.70;79.10;;;;;;5030182;28;20061;-62
2021/11/17 11:22:10;;;;;;;10.13;7.45;;;14.50;79.40;;;;;;5015404;28;19910;-62
2021/11/17 11:24:41;;;;;;;12.70;8.38;;;14.50;79.90;;;;;;5013735;28;20048;-62
2021/11/17 11:27:20;;;;;;;13.40;7.70;;;14.50;80.20;;;;;;5013624;28;20025;-62
2021/11/17 11:30:09;;;;;;;12.07;8.38;;;14.50;80.40;;;;;;5014902;28;20030;-64
2021/11/17 11:32:35;;;;;;;11.20;7.43;;;14.50;80.60;;;;;;5024425;28;20680;-64
2021/11/17 11:35:03;;;;;;;10.35;6.60;;;14.60;80.30;;;;;;5029199;28;20021;-64
2021/11/17 11:37:32;;;;;;;11.52;7.50;;;14.90;80.00;;;;;;5030795;28;20484;-64
2021/11/17 11:40:25;;;;;;;11.15;6.43;;;15.30;79.10;;;;;;5024470;28;20026;-63
2021/11/17 11:43:00;;;;;;;10.00;6.07;;;15.70;78.40;;;;;;5024195;28;20070;-64
2021/11/17 11:45:25;;;;;;;8.52;5.13;;;16.30;76.80;;;;;;5025186;28;20121;-65
2021/11/17 11:47:51;;;;;;;10.30;6.03;;;16.70;75.40;;;;;;5017561;28;20650;-65
2021/11/17 11:50:33;;;;;;;8.70;5.57;;;16.80;74.20;;;;;;5014533;28;20026;-65
2021/11/17 11:53:13;;;;;;;10.00;5.80;;;16.60;74.20;;;;;;5028973;28;20546;-65
2021/11/17 11:55:54;;;;;;;10.60;5.90;;;16.30;74.70;;;;;;5029430;28;20022;-64
2021/11/17 11:58:24;;;;;;;;;;;16.10;75.50;;;;;;5028041;28;20447;-64
2021/11/17 12:01:17;;;;;;;12.00;4.15;;;16.00;75.70;;;;;;5021814;28;19909;-64
2021/11/17 12:04:04;;;;;;;7.28;4.35;;;15.80;75.90;;;;;;5017936;28;20022;-64
2021/11/17 12:06:49;;;;;;;8.90;5.05;;;15.60;76.30;;;;;;5017746;28;20037;-64
2021/11/17 12:09:32;;;;;;;9.02;4.00;;;15.40;77.20;;;;;;5023427;28;20080;-64
2021/11/17 12:12:16;;;;;;;7.65;4.22;;;15.10;77.60;;;;;;5028199;28;20033;-64
2021/11/17 12:14:49;;;;;;;7.60;4.30;;;15.00;78.20;;;;;;5016458;28;20036;-64
2021/11/17 12:17:23;;;;;;;8.20;4.90;;;14.90;78.70;;;;;;5020111;28;20560;-64
2021/11/17 12:19:53;;;;;;;10.07;4.93;;;14.90;79.10;;;;;;5031207;28;20037;-63
2021/11/17 12:22:43;;;;;;;6.82;4.72;;;14.90;79.50;;;;;;5031488;28;20060;-63
2021/11/17 12:25:21;;;;;;;8.30;4.93;;;14.90;79.70;;;;;;5018954;28;20516;-64
2021/11/17 12:27:55;;;;;;;7.38;4.97;;;15.00;79.50;;;;;;5019769;28;20105;-64
2021/11/17 12:30:49;;;;;;;8.07;5.35;;;15.10;79.50;;;;;;5025548;28;20034;-64
2021/11/17 12:33:37;;;;;;;9.77;4.95;;;15.00;80.90;;;;;;5019178;28;20034;-64
2021/11/17 12:36:17;;;;;;;7.70;4.70;;;15.00;80.40;;;;;;5024905;28;20030;-63
2021/11/17 12:38:44;;;;;;;7.53;4.60;;;15.10;80.40;;;;;;5028550;28;20037;-64
2021/11/17 12:41:16;;;;;;;6.88;3.95;;;15.40;80.00;;;;;;5021179;28;20488;-64
2021/11/17 12:43:53;;;;;;;8.43;4.30;;;16.00;78.60;;;;;;5017102;28;20515;-63
2021/11/17 12:46:30;;;;;;;5.50;3.55;;;16.60;76.90;;;;;;5018826;28;20045;-64
2021/11/17 12:49:22;;;;;;;5.88;3.85;;;17.40;75.30;;;;;;5023456;28;20064;-64
2021/11/17 12:52:06;;;;;;;6.10;3.85;;;17.80;74.10;;;;;;5027959;28;20116;-65
2021/11/17 12:54:40;;;;;;;6.90;3.40;;;18.60;72.50;;;;;;5023158;28;20046;-66
2021/11/17 12:57:28;;;;;;;5.72;3.53;;;18.60;71.50;;;;;;5016742;28;20029;-64
2021/11/17 13:00:19;;;;;;;6.50;3.58;;;18.40;71.40;;;;;;5016941;28;20065;-65
2021/11/17 13:02:54;;;;;;;6.40;3.40;;;18.50;71.10;;;;;;5015306;28;20112;-65
2021/11/17 13:05:34;;;;;;;7.22;3.35;;;18.70;70.30;;;;;;5027523;28;20025;-65
2021/11/17 13:08:02;;;;;;;6.53;3.63;;;18.70;69.80;;;;;;5030777;28;20037;-64
2021/11/17 13:10:37;;;;;;;5.63;3.40;;;19.40;69.10;;;;;;5028760;28;20281;-64
2021/11/17 13:13:09;;;;;;;7.35;2.90;;;21.40;65.20;;;;;;5024480;28;20033;-65
2021/11/17 13:15:43;;;;;;;4.97;3.05;;;20.80;63.40;;;;;;5027479;28;20083;-65
2021/11/17 13:18:35;;;;;;;6.50;3.33;;;20.80;63.20;;;;;;5024907;28;20042;-65
2021/11/17 13:21:23;;;;;;;6.28;2.85;;;20.20;64.00;;;;;;5025403;28;20048;-65
2021/11/17 13:24:25;;;;;;;5.78;3.10;;;20.40;64.40;;;;;;5037689;28;20052;-65
2021/11/17 13:27:13;;;;;;;6.53;3.45;;;20.00;64.30;;;;;;5026101;28;20117;-65
2021/11/17 13:29:58;;;;;;;5.65;3.20;;;19.60;65.30;;;;;;5017874;28;20074;-65
2021/11/17 13:32:31;;;;;;;6.97;3.20;;;19.90;65.30;;;;;;5011980;28;20026;-65
2021/11/17 13:34:59;;;;;;;5.70;3.53;;;19.70;65.10;;;;;;5014196;28;20022;-65
2021/11/17 13:37:37;;;;;;;5.25;3.03;;;19.80;65.20;;;;;;5025673;28;20073;-66
2021/11/17 13:40:17;;;;;;;5.13;2.90;;;19.40;65.60;;;;;;5024151;28;20022;-64
2021/11/17 13:42:46;;;;;;;7.57;2.80;;;19.50;65.30;;;;;;5019589;28;20026;-64
2021/11/17 13:45:23;;;;;;;8.95;2.78;;;19.10;66.40;;;;;;5025360;28;20049;-64
2021/11/17 13:47:51;;;;;;;5.75;2.80;;;18.80;67.40;;;;;;5014380;28;20123;-65
2021/11/17 13:50:19;;;;;;;5.10;2.45;;;18.70;67.70;;;;;;5018593;28;20036;-64
2021/11/17 13:52:47;;;;;;;8.27;2.40;;;18.50;68.10;;;;;;5016397;28;20051;-64
2021/11/17 13:55:20;;;;;;;7.80;3.25;;;18.30;69.70;;;;;;5016969;28;20080;-64
2021/11/17 13:57:46;;;;;;;4.47;0.95;;;18.00;69.00;;;;;;5021350;28;20033;-63
2021/11/17 14:00:18;;;;;;;3.47;0.80;;;17.80;68.90;;;;;;5024149;28;20030;-63
2021/11/17 14:02:46;;;;;;;3.70;0.80;;;17.50;68.90;;;;;;5023044;28;20065;-63
2021/11/17 14:05:12;;;;;;;3.10;0.82;;;17.50;68.50;;;;;;5042318;28;20117;-65
2021/11/17 14:07:38;;;;;;;3.25;0.70;;;17.60;68.40;;;;;;5026443;28;20105;-65
2021/11/17 14:10:08;;;;;;;6.28;0.93;;;17.40;69.00;;;;;;5015577;28;20034;-65
2021/11/17 14:12:34;;;;;;;4.22;0.70;;;17.10;70.80;;;;;;5014848;28;20033;-65
2021/11/17 14:15:00;;;;;;;6.68;1.05;;;16.80;71.50;;;;;;5014642;28;20041;-65
2021/11/17 14:17:26;;;;;;;7.88;1.08;;;16.60;72.10;;;;;;5012634;28;20026;-65
2021/11/17 14:19:52;;;;;;;9.07;1.35;;;16.30;72.40;;;;;;5030785;28;20308;-65
2021/11/17 14:22:19;;;;;;;7.75;1.33;;;16.00;72.60;;;;;;5015197;28;20068;-65
2021/11/17 14:24:45;;;;;;;7.20;1.30;;;15.80;73.20;;;;;;5019461;28;20029;-65
2021/11/17 14:27:13;;;;;;;7.13;1.15;;;15.70;73.50;;;;;;5024655;28;20052;-65
2021/11/17 14:29:48;;;;;;;8.30;1.52;;;15.50;73.50;;;;;;5012655;28;20025;-65
2021/11/17 14:32:23;;;;;;;13.25;5.53;;;15.30;74.80;;;;;;5010373;28;20041;-65
2021/11/17 14:34:48;;;;;;;11.30;1.88;;;15.20;74.20;;;;;;5014701;28;20097;-65
2021/11/17 14:37:15;;;;;;;18.27;10.90;;;15.10;74.50;;;;;;5015124;28;20124;-65
2021/11/17 14:39:43;;;;;;;22.33;13.82;;;15.10;74.80;;;;;;5018170;28;20515;-65
2021/11/17 14:42:11;;;;;;;25.00;13.50;;;15.00;75.10;;;;;;5024619;28;20507;-65
2021/11/17 14:44:38;;;;;;;53.85;34.65;;;14.90;75.30;;;;;;5025748;28;20029;-65
2021/11/17 14:47:05;;;;;;;30.77;16.90;;;14.90;75.60;;;;;;5010749;28;20463;-65
2021/11/17 14:49:34;;;;;;;75.13;44.08;;;14.80;75.80;;;;;;5014847;28;20034;-65
2021/11/17 14:52:03;;;;;;;41.95;20.25;;;14.80;75.80;;;;;;5014624;28;20024;-65
2021/11/17 14:54:31;;;;;;;18.15;5.00;;;14.70;75.80;;;;;;5014518;28;20315;-65
2021/11/17 14:56:57;;;;;;;19.15;2.40;;;14.80;75.90;;;;;;5014011;28;20039;-65
2021/11/17 14:59:23;;;;;;;9.75;1.63;;;14.80;76.10;;;;;;5011002;28;20021;-65
2021/11/17 15:01:49;;;;;;;6.65;1.70;;;14.90;76.00;;;;;;5014967;28;20104;-65
2021/11/17 15:04:15;;;;;;;12.85;1.90;;;15.20;75.60;;;;;;5014431;28;20030;-65
2021/11/17 15:06:42;;;;;;;12.07;2.40;;;15.30;75.40;;;;;;5014779;28;20079;-65
2021/11/17 15:09:10;;;;;;;12.50;3.20;;;15.40;75.40;;;;;;5016802;28;20543;-65
2021/11/17 15:11:53;;;;;;;10.45;2.85;;;15.40;75.40;;;;;;5029633;28;20032;-65
2021/11/17 15:14:22;;;;;;;16.52;3.30;;;15.30;75.80;;;;;;5026362;28;20083;-65
2021/11/17 15:16:48;;;;;;;9.35;2.83;;;15.30;75.80;;;;;;5029743;28;20808;-65
2021/11/17 15:19:14;;;;;;;15.15;2.70;;;15.50;75.60;;;;;;5019406;28;20065;-65
2021/11/17 15:21:40;;;;;;;12.55;3.22;;;15.50;75.30;;;;;;5018287;28;20030;-65
2021/11/17 15:24:06;;;;;;;13.05;3.00;;;15.50;75.40;;;;;;5018531;28;20029;-65
2021/11/17 15:26:32;;;;;;;12.57;2.60;;;15.40;75.50;;;;;;5014441;28;20473;-65
2021/11/17 15:29:01;;;;;;;10.02;2.35;;;15.40;75.80;;;;;;5016395;28;20034;-65
2021/11/17 15:31:30;;;;;;;11.13;2.05;;;15.40;75.90;;;;;;5027996;28;20018;-65
2021/11/17 15:33:56;;;;;;;11.75;2.30;;;15.50;75.80;;;;;;5021700;28;20385;-65
2021/11/17 15:36:24;;;;;;;9.32;1.80;;;15.60;75.70;;;;;;5018163;28;20033;-65
2021/11/17 15:38:52;;;;;;;9.15;2.13;;;15.60;75.60;;;;;;5017751;28;20531;-65
2021/11/17 15:41:22;;;;;;;11.23;2.28;;;15.50;75.70;;;;;;5014476;28;20025;-65
2021/11/17 15:43:50;;;;;;;10.35;2.50;;;15.40;75.80;;;;;;5017567;28;20026;-65
2021/11/17 15:46:17;;;;;;;11.13;2.00;;;15.30;76.10;;;;;;5017120;28;20045;-65
2021/11/17 15:48:43;;;;;;;10.60;1.73;;;15.30;76.30;;;;;;5021568;28;20029;-65
2021/11/17 15:51:12;;;;;;;12.65;1.90;;;15.20;76.40;;;;;;5027722;28;20033;-65
2021/11/17 15:53:38;;;;;;;11.77;1.95;;;15.20;76.70;;;;;;5015424;28;20061;-64
2021/11/17 15:56:05;;;;;;;12.10;1.98;;;15.00;77.00;;;;;;5015389;28;20037;-65
2021/11/17 15:58:31;;;;;;;7.18;1.80;;;14.90;77.20;;;;;;5026499;28;20030;-63
2021/11/17 16:00:57;;;;;;;16.52;2.50;;;14.80;77.30;;;;;;5028005;28;20163;-63
2021/11/17 16:03:24;;;;;;;12.15;2.20;;;14.70;77.70;;;;;;5027087;28;20030;-63
2021/11/17 16:05:49;;;;;;;11.60;1.90;;;14.50;77.90;;;;;;5028723;28;20135;-64
2021/11/17 16:08:16;;;;;;;11.45;2.47;;;14.30;78.20;;;;;;5026256;28;20655;-63
2021/11/17 16:10:42;;;;;;;12.93;2.35;;;14.20;78.60;;;;;;5029771;28;20044;-64
2021/11/17 16:13:08;;;;;;;12.43;2.22;;;14.00;78.90;;;;;;5028999;28;20378;-63
2021/11/17 16:15:37;;;;;;;13.55;2.15;;;13.80;79.30;;;;;;5030403;28;20032;-64
2021/11/17 16:18:03;;;;;;;9.40;1.80;;;13.60;79.60;;;;;;5027072;28;20077;-63
2021/11/17 16:20:39;;;;;;;7.28;1.52;;;13.40;80.00;;;;;;5013401;28;20054;-63
2021/11/17 16:23:14;;;;;;;9.30;1.80;;;13.30;80.30;;;;;;5015328;28;20033;-63
2021/11/17 16:25:44;;;;;;;13.50;2.10;;;13.10;80.50;;;;;;5017690;28;20145;-63
2021/11/17 16:28:20;;;;;;;10.30;2.55;;;13.00;80.90;;;;;;5017295;28;20026;-63
2021/11/17 16:30:47;;;;;;;10.00;2.00;;;12.90;81.20;;;;;;5017342;28;20156;-63
2021/11/17 16:33:15;;;;;;;13.30;2.53;;;12.70;81.30;;;;;;5017581;28;20037;-63
2021/11/17 16:35:42;;;;;;;14.63;2.30;;;12.60;81.70;;;;;;5014521;28;20048;-63
2021/11/17 16:38:10;;;;;;;17.92;2.65;;;12.50;81.80;;;;;;5029493;28;20107;-63
2021/11/17 16:40:39;;;;;;;7.70;1.95;;;12.40;82.10;;;;;;5027792;28;20497;-63
2021/11/17 16:43:08;;;;;;;9.60;1.83;;;12.30;82.30;;;;;;5014999;28;20037;-63
2021/11/17 16:45:35;;;;;;;6.05;1.65;;;12.20;82.40;;;;;;5015588;28;20117;-63
2021/11/17 16:48:04;;;;;;;6.45;1.80;;;12.10;82.40;;;;;;5015474;28;20037;-63
2021/11/17 16:50:32;;;;;;;10.13;2.40;;;12.00;82.20;;;;;;5013308;28;20053;-63
2021/11/17 16:52:59;;;;;;;9.35;2.10;;;11.90;82.10;;;;;;5027582;28;20056;-63
2021/11/17 16:55:28;;;;;;;8.60;2.30;;;11.80;82.20;;;;;;5016093;28;20504;-63
2021/11/17 16:57:57;;;;;;;8.52;2.92;;;11.70;82.40;;;;;;5015213;28;20123;-63
2021/11/17 17:00:29;;;;;;;10.25;3.33;;;11.70;82.40;;;;;;5017873;28;20041;-63
2021/11/17 17:02:56;;;;;;;6.05;2.30;;;11.60;82.40;;;;;;5027236;28;20036;-63
2021/11/17 17:05:25;;;;;;;5.00;1.80;;;11.50;82.30;;;;;;5011014;28;20045;-63
2021/11/17 17:07:52;;;;;;;6.53;2.00;;;11.40;82.50;;;;;;5027000;28;20034;-63
2021/11/17 17:10:26;;;;;;;4.53;2.17;;;11.30;82.40;;;;;;5024146;28;21132;-64
2021/11/17 17:12:57;;;;;;;9.25;2.38;;;11.30;82.50;;;;;;5022407;28;20033;-64
2021/11/17 17:15:27;;;;;;;7.75;2.65;;;11.20;82.50;;;;;;5018756;28;20071;-64
2021/11/17 17:17:53;;;;;;;7.70;2.72;;;11.10;82.40;;;;;;5013808;28;20116;-64
2021/11/17 17:20:22;;;;;;;6.25;2.58;;;11.10;82.30;;;;;;5027544;28;20026;-63
2021/11/17 17:22:50;;;;;;;5.95;2.60;;;11.00;82.20;;;;;;5023286;28;20021;-64
2021/11/17 17:25:20;;;;;;;6.60;2.65;;;10.90;82.10;;;;;;5023808;28;20043;-64
2021/11/17 17:27:47;;;;;;;8.05;3.30;;;10.90;82.10;;;;;;5019713;28;20481;-64
2021/11/17 17:30:36;;;;;;;12.55;3.85;;;10.90;82.20;;;;;;5020366;28;20034;-64
2021/11/17 17:33:02;;;;;;;7.18;3.60;;;10.80;82.20;;;;;;5025882;28;20045;-64
2021/11/17 17:35:30;;;;;;;8.25;4.05;;;10.70;82.20;;;;;;5020808;28;20030;-64
2021/11/17 17:37:59;;;;;;;9.80;3.17;;;10.70;82.30;;;;;;5029532;28;20097;-64
2021/11/17 17:40:25;;;;;;;11.02;3.50;;;10.60;82.40;;;;;;5023101;28;20049;-63
2021/11/17 17:42:52;;;;;;;8.93;3.38;;;10.60;82.60;;;;;;5028740;28;20388;-64
2021/11/17 17:45:18;;;;;;;8.90;3.50;;;10.50;82.80;;;;;;5025635;28;20029;-64
2021/11/17 17:47:46;;;;;;;7.55;3.20;;;10.50;83.00;;;;;;5028264;28;20050;-64
2021/11/17 17:50:15;;;;;;;8.10;3.78;;;10.40;83.00;;;;;;5023993;28;20481;-63
2021/11/17 17:52:41;;;;;;;9.55;5.40;;;10.40;83.10;;;;;;5058614;28;20088;-64
2021/11/17 17:55:08;;;;;;;8.52;4.97;;;10.30;83.10;;;;;;5023945;28;20116;-64
2021/11/17 17:57:34;;;;;;;10.45;4.53;;;10.30;83.30;;;;;;5025293;28;20041;-64
2021/11/17 18:00:07;;;;;;;8.82;4.43;;;10.20;83.30;;;;;;5025716;28;20388;-64
2021/11/17 18:02:33;;;;;;;7.53;4.20;;;10.20;83.00;;;;;;5024704;28;20061;-64
2021/11/17 18:04:58;;;;;;;8.75;3.75;;;10.10;82.90;;;;;;5026385;28;20519;-64
2021/11/17 18:07:25;;;;;;;8.00;3.83;;;10.10;82.70;;;;;;5027178;28;20041;-65
2021/11/17 18:09:51;;;;;;;10.68;4.25;;;10.00;82.60;;;;;;5026079;28;20057;-64
2021/11/17 18:12:16;;;;;;;6.80;3.45;;;9.90;82.40;;;;;;5020245;28;20078;-63
2021/11/17 18:14:42;;;;;;;7.38;3.70;;;9.90;82.40;;;;;;5025145;28;20105;-64
2021/11/17 18:17:08;;;;;;;6.28;2.88;;;9.80;83.20;;;;;;5018628;28;20037;-64
2021/11/17 18:19:34;;;;;;;5.22;3.00;;;9.80;82.20;;;;;;5028776;28;20021;-63
2021/11/17 18:22:00;;;;;;;10.85;5.53;;;9.70;82.20;;;;;;5018605;28;20029;-64
2021/11/17 18:24:26;;;;;;;11.70;6.40;;;9.70;82.40;;;;;;5019253;28;20022;-64
2021/11/17 18:27:02;;;;;;;9.88;5.45;;;9.60;82.70;;;;;;5024899;28;20030;-64
2021/11/17 18:29:28;;;;;;;9.50;4.28;;;9.60;82.80;;;;;;5019885;28;20079;-64
2021/11/17 18:31:55;;;;;;;10.20;4.40;;;9.60;82.80;;;;;;5021591;28;20037;-64
2021/11/17 18:34:21;;;;;;;7.78;4.13;;;9.60;82.70;;;;;;5015911;28;20041;-64
2021/11/17 18:36:49;;;;;;;9.98;4.22;;;9.50;82.60;;;;;;5023600;28;20042;-64
2021/11/17 18:39:17;;;;;;;6.75;3.60;;;9.50;82.70;;;;;;5020350;28;20033;-63
2021/11/17 18:41:54;;;;;;;7.78;4.07;;;9.40;82.60;;;;;;5012560;28;20120;-64
2021/11/17 18:44:21;;;;;;;12.02;6.03;;;9.40;82.40;;;;;;5019257;28;20037;-64
2021/11/17 18:46:47;;;;;;;9.88;5.18;;;9.30;82.30;;;;;;5015153;28;20049;-64
2021/11/17 18:49:14;;;;;;;7.63;4.40;;;9.30;82.20;;;;;;5023305;28;20838;-63
2021/11/17 18:51:42;;;;;;;6.20;3.38;;;9.20;82.20;;;;;;5024766;28;20030;-63
2021/11/17 18:54:08;;;;;;;14.10;3.80;;;9.20;82.20;;;;;;5024301;28;20037;-62
2021/11/17 18:56:35;;;;;;;9.40;3.25;;;9.10;82.20;;;;;;5027503;28;20031;-62
2021/11/17 18:59:01;;;;;;;7.97;3.22;;;9.10;82.30;;;;;;5026682;28;20029;-62
2021/11/17 19:01:32;;;;;;;13.95;3.97;;;9.10;82.40;;;;;;5027302;28;20029;-62
2021/11/17 19:04:00;;;;;;;14.15;3.58;;;9.10;82.50;;;;;;5021952;28;20076;-62
2021/11/17 19:06:26;;;;;;;16.95;3.63;;;9.10;82.50;;;;;;5019159;28;20052;-62
2021/11/17 19:08:52;;;;;;;13.65;3.53;;;9.00;82.40;;;;;;5028134;28;20033;-63
2021/11/17 19:11:28;;;;;;;9.15;3.40;;;9.00;82.30;;;;;;5025971;28;20121;-62
2021/11/17 19:13:54;;;;;;;6.15;3.10;;;8.90;82.10;;;;;;5023422;28;20048;-63
2021/11/17 19:16:19;;;;;;;5.72;3.08;;;8.90;82.20;;;;;;5026967;28;20029;-62
2021/11/17 19:18:45;;;;;;;6.47;3.20;;;8.90;82.10;;;;;;5025528;28;20025;-63
2021/11/17 19:21:11;;;;;;;8.93;2.95;;;8.80;82.00;;;;;;5026944;28;20036;-63
2021/11/17 19:23:37;;;;;;;8.43;3.42;;;8.80;82.10;;;;;;5023529;28;20037;-62
2021/11/17 19:26:03;;;;;;;8.75;3.38;;;8.80;82.10;;;;;;5025305;28;20087;-62
2021/11/17 19:28:29;;;;;;;6.88;3.45;;;8.80;82.10;;;;;;5028730;28;20087;-62
2021/11/17 19:30:56;;;;;;;13.93;3.40;;;8.70;82.00;;;;;;5023673;28;20033;-62
2021/11/17 19:33:23;;;;;;;28.08;4.20;;;8.70;82.10;;;;;;5026202;28;20028;-62
2021/11/17 19:35:49;;;;;;;6.80;3.70;;;8.60;82.00;;;;;;5025130;28;20026;-63
2021/11/17 19:38:20;;;;;;;8.45;3.67;;;8.60;81.90;;;;;;5024991;28;20457;-62
2021/11/17 19:40:48;;;;;;;;;;;8.60;82.00;;;;;;5028933;28;20029;-62
2021/11/17 19:43:16;;;;;;;7.38;3.25;;;8.50;81.80;;;;;;5024005;28;19952;-62
2021/11/17 19:45:42;;;;;;;5.82;2.72;;;8.50;82.00;;;;;;5026825;28;20030;-63
2021/11/17 19:48:08;;;;;;;12.45;2.90;;;8.40;82.00;;;;;;5024803;28;20405;-63
2021/11/17 19:50:35;;;;;;;6.85;2.65;;;8.40;82.10;;;;;;5023941;28;20036;-63
2021/11/17 19:53:01;;;;;;;8.10;2.83;;;8.40;82.10;;;;;;5023423;28;20125;-62
2021/11/17 19:55:28;;;;;;;8.57;3.40;;;8.30;82.00;;;;;;5025684;28;20096;-62